Record high temperature 35.2°C Record low temperature -28.5°C Record high gust 73.6 km/h Record high average 52.2 km/h Record daily rain 78.0 mm Record low windchill -39.6°C Record high barometer 1045.2 hPa Record low barometer 973.0 hPa
Daily high pressure 1019 hPa Daily low pressure 1019 hPa Daily low windchill 14.5°C Daily high heat index 16.2°C Daily high gust speed 5.6 kmh WNW Daily high average speed 3.6 kmh WNW
Beaconsfield Home Weather Data WMR-968
LAST READING AT TIME: 02:40 DATE: May 26 2016, time of next update: 02:45
Current WeatherNight time/Dry/A few clouds Current Temperature 14.5°C (58.1°F), Apparent temp 13.2°C
Maximum Temperature (since midnight)16.2°C at: 00:00 Minimum Temperature (since midnight)14.5°C at: 01:37
Average windspeed (ten minute)0.9 kmh (0.5 kts) Wind Direction (ten minute)WNW (304°)
Windchill Temperature 14.5°C Maximum Gust (last hour)5.0 kmh (2.7 kts) at: 02:36
Maximum Gust (since midnight)5.6 kmh (3.0 kts) at: 02:36 Maximum 1 minute average (since midnight)3.6 kmh (1.9 kts) at: 02:37
Rainfall (last hour)0.0 mm Rainfall (since midnight)0.0 mm (0.00 in.)---
Rainfall This month 23.6 mm (0.93 in.) Rainfall To date this year 227.6 mm (8.96 in.)
Maximum rain per minute (last hour)0.0 mm/min Maximum rain per hour (last 6 hours)0.0 mm/hour
Yesterdays rainfall 0.0 mm DewPoint 2.4°C (Wet Bulb :9.1°C )
Humidity 44 %, Humidex 13.0°C Barometer corrected to msl1019 hPa
Pressure change 0 hPa (last hour) Trend (last hour)STEADY
Pressure change (last 12 hours)+4 hPa Pressure change (last 6 hours)+2 hPa
Current Indoor Temp. 24.9°C
Current Indoor Hum. 35%
Current Solar 0 W/mē
Maximum solar (since midnight) 0 W/mē Minimum solar (since midnight)1000 W/mē
Current 00:00 hours of sunshine today, current sky: Night time/Dry/A few clouds
Sunshine hours for the year: 01:18 hrs Sunshine hours for the month: 01:17 hrs
Current evapotranspiration rate 1.5 mm per day. Yesterday's reading 5.5




Weather report/warning/Metars

Montreal / Pierre Elliot Trudeau International Airport, Que, Canada (CYUL) 45-28N 073-45W 36M
May 26, 2016 - 02:00 AM EDT / 2016.05.26 0600 UTC
Wind: Calm:0
Visibility: 15 mile(s):0
Sky conditions: mostly clear
Temperature: 55 F (13 C)
Dew Point: 51 F (11 C)
Relative Humidity: 87%
Pressure (altimeter): 30.07 in. Hg (1018 hPa)
ob: CYUL 260600Z 00000KT 15SM FEW240 13/11 A3007 RMK CI1 CI TR SLP184
cycle: 6
Sherbrooke, Que., Canada (CYSC) 45-24N 071-53W
May 26, 2016 - 02:00 AM EDT / 2016.05.26 0600 UTC
Wind: Variable at 2 MPH (2 KT):0
Visibility: 9 mile(s):0
Sky conditions: clear
Temperature: 50 F (10 C)
Dew Point: 50 F (10 C)
Relative Humidity: 100%
Pressure (altimeter): 30.06 in. Hg (1017 hPa)
ob: CYSC 260600Z AUTO VRB02KT 9SM CLR 10/10 A3006 RMK SLP184
cycle: 6
St Jovite Automatic Weather Reporting System , Canada (CWJT) 46-04N 074-32W
May 26, 2016 - 02:00 AM EDT / 2016.05.26 0600 UTC
Wind: from the NNE (020 degrees) at 1 MPH (1 KT):0
Temperature: 45.0 F (7.2 C)
Dew Point: 44.6 F (7.0 C)
Relative Humidity: 98%
Pressure tendency: 0.03 inches (0.9 hPa) higher than three hours ago
ob: CWJT 260600Z AUTO 02001KT 07/07 RMK AO1 SLP194 T00720070 51009
cycle: 6
Ste Anne De Bell 1, Canada (CWVQ) 45-26N 073-56W
May 26, 2016 - 02:00 AM EDT / 2016.05.26 0600 UTC
Wind: from the NW (310 degrees) at 2 MPH (2 KT):0
Temperature: 52.0 F (11.1 C)
Dew Point: 51.3 F (10.7 C)
Relative Humidity: 97%
Pressure tendency: 0.01 inches (0.5 hPa) higher than three hours ago
ob: CWVQ 260600Z AUTO 31002KT 11/11 RMK AO1 SLP185 T01110107 53005
cycle: 6
Montreal / Mirabel, Canada (CYMX) 45-41N 074-02W
May 26, 2016 - 02:00 AM EDT / 2016.05.26 0600 UTC
Wind: from the NNW (340 degrees) at 2 MPH (2 KT):0
Visibility: 25 mile(s):0
Sky conditions: partly cloudy
Temperature: 51 F (11 C)
Dew Point: 51 F (11 C)
Relative Humidity: 100%
Pressure (altimeter): 30.09 in. Hg (1018 hPa)
ob: CYMX 260600Z 34002KT 25SM SCT250 11/11 A3009 RMK CI4 SLP193
cycle: 6
L'Acadie, Canada (CWIZ) 45-18N 073-21W
May 26, 2016 - 02:00 AM EDT / 2016.05.26 0600 UTC
Wind: from the SSE (160 degrees) at 1 MPH (1 KT):0
Temperature: 53.1 F (11.7 C)
Dew Point: 47.8 F (8.8 C)
Relative Humidity: 82%
ob: CWIZ 260600Z AUTO 16001KT 12/09 RMK AO1 T01170088
cycle: 6
St Anicet, Canada (CWBZ) 45-07N 074-17W 49M
May 26, 2016 - 02:00 AM EDT / 2016.05.26 0600 UTC
Wind: Calm:0
Temperature: 52.2 F (11.2 C)
Dew Point: 50.5 F (10.3 C)
Relative Humidity: 94%
Pressure tendency: 0.01 inches (0.3 hPa) higher than three hours ago
ob: CWBZ 260600Z AUTO 00000KT 11/10 RMK AO1 SLP183 T01120103 52003
cycle: 6
Mount Washington, NH, United States (KMWN) 44-16N 071-18W 1910M
May 26, 2016 - 01:49 AM EDT / 2016.05.26 0549 UTC
Wind: from the W (280 degrees) at 60 MPH (52 KT) gusting to 67 MPH (58 KT):1
Visibility: less than 1 mile:0
Sky conditions: obscured
Weather: fog
Temperature: 44 F (7 C)
Dew Point: 44 F (7 C)
Relative Humidity: 100%
ob: KMWN 260549Z 28052G58KT 0SM FG VV000 07/07 RMK 10083 20065
cycle: 6
Vancouver International Air-Port, B. C., Canada (CYVR) 49-11N 123-10W 2M
May 26, 2016 - 02:00 AM EDT / 2016.05.26 0600 UTC
Wind: from the E (100 degrees) at 12 MPH (10 KT):0
Visibility: 20 mile(s):0
Sky conditions: mostly cloudy
Temperature: 59 F (15 C)
Dew Point: 50 F (10 C)
Relative Humidity: 72%
Pressure (altimeter): 30.11 in. Hg (1019 hPa)
ob: CYVR 260600Z 10010KT 20SM BKN050 15/10 A3011 RMK SC5 SLP199
cycle: 6



The data is logged at two minute intervals, but there is data recorded every minute.

Use the RELOAD facility on your browser to retrieve the latest data.

Click here for a daily update of the averages/extremes to date for the month

Click here for Real Time Weather



Created by "Weather Display" software version 10.37S at this start time/date 19:15:03 2016-05-16